Time;durP1;ratioP1;P1;durP2;ratioP2;P2;SDS_P1;SDS_P2;PMS_P1;PMS_P2;Temp;Humidity;BMP_temperature;BMP_pressure;BME280_temperature;BME280_humidity;BME280_pressure;Samples;Min_cycle;Max_cycle;Signal;HPM_P1;HPM_P2
2023/09/29 00:04:29;;;;;;;11.9;8.6;;;;;;;13.17;88.62;;;;;
2023/09/29 00:14:30;;;;;;;13.5;9.7;;;;;;;12.99;89.94;;;;;
2023/09/29 00:25:29;;;;;;;13.5;9.7;;;;;;;12.8;89.41;;;;;
2023/09/29 00:35:30;;;;;;;13.5;9.7;;;;;;;12.65;89.57;;;;;
2023/09/29 00:45:30;;;;;;;12.9;8.6;;;;;;;12.64;90.27;;;;;
2023/09/29 00:56:30;;;;;;;12.9;8.6;;;;;;;12.5;90.43;;;;;
2023/09/29 01:06:30;;;;;;;8.8;5;;;;;;;12.47;90.34;;;;;
2023/09/29 01:17:30;;;;;;;8.8;5;;;;;;;12.34;90.22;;;;;
2023/09/29 01:28:30;;;;;;;8.8;5;;;;;;;12.18;90.61;;;;;
2023/09/29 01:38:30;;;;;;;9.6;5.1;;;;;;;12.13;91.14;;;;;
2023/09/29 01:49:30;;;;;;;9.6;5.1;;;;;;;12.02;90.88;;;;;
2023/09/29 02:00:30;;;;;;;9.6;5.1;;;;;;;11.92;91.42;;;;;
2023/09/29 02:10:30;;;;;;;10;4.5;;;;;;;11.94;91.38;;;;;
2023/09/29 02:21:32;;;;;;;10;4.5;;;;;;;11.78;90.77;;;;;
2023/09/29 02:32:30;;;;;;;10;4.5;;;;;;;11.61;91.36;;;;;
2023/09/29 02:43:30;;;;;;;8.2;4.5;;;;;;;11.65;92.66;;;;;
2023/09/29 02:53:30;;;;;;;8.2;4.5;;;;;;;11.55;91.87;;;;;
2023/09/29 03:04:30;;;;;;;8.2;4.5;;;;;;;11.43;91.95;;;;;
2023/09/29 03:14:30;;;;;;;9;5;;;;;;;11.38;91.86;;;;;
2023/09/29 03:24:30;;;;;;;9;5;;;;;;;11.35;92;;;;;
2023/09/29 03:35:30;;;;;;;9;5;;;;;;;11.26;91.64;;;;;
2023/09/29 03:46:30;;;;;;;9.6;5.5;;;;;;;11.14;91.17;;;;;
2023/09/29 03:56:30;;;;;;;9.6;5.5;;;;;;;11.03;91.01;;;;;
2023/09/29 04:06:30;;;;;;;8.8;4.9;;;;;;;10.94;91.46;;;;;
2023/09/29 04:17:30;;;;;;;8.8;4.9;;;;;;;10.92;92.44;;;;;
2023/09/29 04:28:30;;;;;;;8.8;4.9;;;;;;;10.95;92.75;;;;;
2023/09/29 04:39:30;;;;;;;8.5;4.8;;;;;;;10.92;92.34;;;;;
2023/09/29 04:50:30;;;;;;;8.5;4.8;;;;;;;10.9;92.04;;;;;
2023/09/29 05:01:30;;;;;;;8.5;4.8;;;;;;;10.97;92.29;;;;;
2023/09/29 05:12:30;;;;;;;11.6;5.3;;;;;;;11.12;92.37;;;;;
2023/09/29 05:22:31;;;;;;;11.6;5.3;;;;;;;11.31;92.52;;;;;
2023/09/29 05:33:30;;;;;;;11.6;5.3;;;;;;;11.6;92.65;;;;;
2023/09/29 05:43:30;;;;;;;11.6;5.9;;;;;;;11.97;92.64;;;;;
2023/09/29 05:53:30;;;;;;;11.6;5.9;;;;;;;12.4;92.65;;;;;
2023/09/29 06:04:30;;;;;;;11.6;5.9;;;;;;;12.82;92.28;;;;;
2023/09/29 06:14:32;;;;;;;13.2;6.6;;;;;;;13.3;91.83;;;;;
2023/09/29 06:24:30;;;;;;;13.2;6.6;;;;;;;13.6;90.81;;;;;
2023/09/29 06:35:30;;;;;;;13.2;6.6;;;;;;;14.17;89.24;;;;;
2023/09/29 06:45:31;;;;;;;13;7.5;;;;;;;14.68;88.05;;;;;
2023/09/29 06:56:30;;;;;;;13;7.5;;;;;;;15.18;87.29;;;;;
2023/09/29 07:07:30;;;;;;;16;11.7;;;;;;;15.57;86.09;;;;;
2023/09/29 07:17:30;;;;;;;16;11.7;;;;;;;16.15;85.44;;;;;
2023/09/29 07:27:31;;;;;;;16;11.7;;;;;;;16.66;84.33;;;;;
2023/09/29 07:37:31;;;;;;;15.6;10.5;;;;;;;17.11;81.68;;;;;
2023/09/29 07:48:30;;;;;;;15.6;10.5;;;;;;;17.67;80.51;;;;;
2023/09/29 07:59:30;;;;;;;15.6;10.5;;;;;;;18.12;79.31;;;;;
2023/09/29 08:10:30;;;;;;;12.5;9.4;;;;;;;18.77;78.56;;;;;
2023/09/29 08:21:30;;;;;;;12.5;9.4;;;;;;;19.28;76.6;;;;;
2023/09/29 08:32:30;;;;;;;12.5;9.4;;;;;;;19.76;75.6;;;;;
2023/09/29 08:42:30;;;;;;;13;8.1;;;;;;;20.27;75.89;;;;;
2023/09/29 08:52:30;;;;;;;13;8.1;;;;;;;20.75;74.73;;;;;
2023/09/29 09:02:30;;;;;;;13;8.1;;;;;;;21.22;70.83;;;;;
2023/09/29 09:12:30;;;;;;;12.6;7.2;;;;;;;21.47;70.54;;;;;
2023/09/29 09:23:30;;;;;;;12.6;7.2;;;;;;;22.13;67.53;;;;;
2023/09/29 09:34:30;;;;;;;12.6;7.2;;;;;;;22.44;65.74;;;;;
2023/09/29 09:44:32;;;;;;;10.8;6.8;;;;;;;22.9;62.26;;;;;
2023/09/29 09:55:31;;;;;;;10.8;6.8;;;;;;;23.16;61.13;;;;;
2023/09/29 10:06:30;;;;;;;11.7;6.7;;;;;;;23.44;57.45;;;;;
2023/09/29 10:17:32;;;;;;;11.7;6.7;;;;;;;23.91;58.72;;;;;
2023/09/29 10:27:31;;;;;;;11.7;6.7;;;;;;;24.13;58.23;;;;;
2023/09/29 10:38:30;;;;;;;12.6;6.2;;;;;;;24.35;57.41;;;;;
2023/09/29 10:48:31;;;;;;;12.6;6.2;;;;;;;24.38;55.05;;;;;
2023/09/29 10:59:30;;;;;;;12.6;6.2;;;;;;;24.69;54.13;;;;;
2023/09/29 11:09:31;;;;;;;12.4;6.2;;;;;;;24.86;53.9;;;;;
2023/09/29 11:20:31;;;;;;;12.4;6.2;;;;;;;24.95;51.64;;;;;
2023/09/29 11:30:30;;;;;;;12.4;6.2;;;;;;;25.34;49.47;;;;;
2023/09/29 11:41:30;;;;;;;10.3;5.8;;;;;;;25.36;48.6;;;;;
2023/09/29 11:51:30;;;;;;;10.3;5.8;;;;;;;25.46;47.77;;;;;
2023/09/29 12:01:30;;;;;;;10.3;5.8;;;;;;;25.29;47.05;;;;;
2023/09/29 12:11:30;;;;;;;10.9;5.5;;;;;;;25.39;48.47;;;;;
2023/09/29 12:21:30;;;;;;;10.9;5.5;;;;;;;25.46;46.01;;;;;
2023/09/29 12:31:30;;;;;;;10.9;5.5;;;;;;;25.56;46.7;;;;;
2023/09/29 12:41:31;;;;;;;8.9;5;;;;;;;25.39;45.07;;;;;
2023/09/29 12:51:30;;;;;;;8.9;5;;;;;;;25.48;45.33;;;;;
2023/09/29 13:02:31;;;;;;;8.9;5;;;;;;;25.64;44.93;;;;;
2023/09/29 13:13:30;;;;;;;8.5;4.2;;;;;;;25.6;44.14;;;;;
2023/09/29 13:23:30;;;;;;;8.5;4.2;;;;;;;25.75;46.73;;;;;
2023/09/29 13:33:30;;;;;;;8.5;4.2;;;;;;;25.79;50.28;;;;;
2023/09/29 13:44:30;;;;;;;8.5;4.5;;;;;;;25.84;43.37;;;;;
2023/09/29 13:54:30;;;;;;;8.5;4.5;;;;;;;25.76;46.46;;;;;
2023/09/29 14:05:31;;;;;;;8.5;4.5;;;;;;;25.83;46.72;;;;;
2023/09/29 14:16:30;;;;;;;7.1;4.3;;;;;;;25.84;47.12;;;;;
2023/09/29 14:27:31;;;;;;;7.1;4.3;;;;;;;25.82;43.36;;;;;
2023/09/29 14:37:32;;;;;;;9.3;5.7;;;;;;;25.58;47.97;;;;;
2023/09/29 14:48:30;;;;;;;9.3;5.7;;;;;;;25.43;51.97;;;;;
2023/09/29 14:58:30;;;;;;;9.3;5.7;;;;;;;25.23;57.72;;;;;
2023/09/29 15:08:30;;;;;;;8.5;5.5;;;;;;;24.79;59.48;;;;;
2023/09/29 15:18:30;;;;;;;8.5;5.5;;;;;;;24.56;60.27;;;;;
2023/09/29 15:28:30;;;;;;;8.5;5.5;;;;;;;24.98;58.77;;;;;
2023/09/29 15:38:30;;;;;;;9.3;5.8;;;;;;;26.05;53.17;;;;;
2023/09/29 15:49:30;;;;;;;9.3;5.8;;;;;;;25.34;53.99;;;;;
2023/09/29 15:59:30;;;;;;;9.3;5.8;;;;;;;24.1;54.29;;;;;
2023/09/29 16:10:30;;;;;;;9.2;5.6;;;;;;;22.47;59;;;;;
2023/09/29 16:20:30;;;;;;;9.2;5.6;;;;;;;21.35;66.74;;;;;
2023/09/29 16:30:30;;;;;;;9.2;5.6;;;;;;;20.26;68.45;;;;;
2023/09/29 16:41:30;;;;;;;11.9;8.1;;;;;;;19.42;69.48;;;;;
2023/09/29 16:52:30;;;;;;;11.9;8.1;;;;;;;18.67;71.01;;;;;
2023/09/29 17:03:30;;;;;;;11.9;8.1;;;;;;;18.01;72.86;;;;;
2023/09/29 17:13:30;;;;;;;16.1;12.9;;;;;;;17.53;74.8;;;;;
2023/09/29 17:23:30;;;;;;;16.1;12.9;;;;;;;17.14;76.09;;;;;
2023/09/29 17:34:31;;;;;;;16.1;12.9;;;;;;;16.8;76.17;;;;;
2023/09/29 17:45:33;;;;;;;23.7;20.3;;;;;;;16.49;76.73;;;;;
2023/09/29 17:56:30;;;;;;;23.7;20.3;;;;;;;16.27;77.38;;;;;
2023/09/29 18:06:31;;;;;;;22.6;17.3;;;;;;;15.99;77.09;;;;;
2023/09/29 18:17:30;;;;;;;22.6;17.3;;;;;;;15.83;78.02;;;;;
2023/09/29 18:28:31;;;;;;;22.6;17.3;;;;;;;15.55;78.68;;;;;
2023/09/29 18:38:30;;;;;;;16.7;11;;;;;;;15.38;79.26;;;;;
2023/09/29 18:48:30;;;;;;;16.7;11;;;;;;;15.13;80.33;;;;;
2023/09/29 18:59:30;;;;;;;16.7;11;;;;;;;14.92;81.02;;;;;
2023/09/29 19:10:31;;;;;;;15.8;11.6;;;;;;;14.68;81.26;;;;;
2023/09/29 19:20:32;;;;;;;15.8;11.6;;;;;;;14.51;83.86;;;;;
2023/09/29 19:30:30;;;;;;;15.8;11.6;;;;;;;14.39;84.08;;;;;
2023/09/29 19:41:30;;;;;;;17.9;13.8;;;;;;;14.17;84.45;;;;;
2023/09/29 19:51:30;;;;;;;17.9;13.8;;;;;;;14.03;85.28;;;;;
2023/09/29 20:01:31;;;;;;;17.9;13.8;;;;;;;13.94;85.38;;;;;
2023/09/29 20:12:30;;;;;;;14.8;10.9;;;;;;;13.86;86.05;;;;;
2023/09/29 20:23:31;;;;;;;14.8;10.9;;;;;;;13.75;86.08;;;;;
2023/09/29 20:34:31;;;;;;;14.8;10.9;;;;;;;13.57;86.24;;;;;
2023/09/29 20:44:30;;;;;;;14;11.5;;;;;;;13.43;86.05;;;;;
2023/09/29 20:54:30;;;;;;;14;11.5;;;;;;;13.34;86.33;;;;;
2023/09/29 21:04:30;;;;;;;14;11.5;;;;;;;13.3;86.8;;;;;
2023/09/29 21:15:31;;;;;;;17;11.2;;;;;;;13.18;86.44;;;;;
2023/09/29 21:25:30;;;;;;;17;11.2;;;;;;;13.18;87.14;;;;;
2023/09/29 21:35:30;;;;;;;17;11.2;;;;;;;13.07;87.18;;;;;
2023/09/29 21:46:30;;;;;;;15.9;9.1;;;;;;;13;87.55;;;;;
2023/09/29 21:57:30;;;;;;;15.9;9.1;;;;;;;12.9;87.92;;;;;
2023/09/29 22:07:30;;;;;;;14.2;7.9;;;;;;;12.8;88.13;;;;;
2023/09/29 22:18:30;;;;;;;14.2;7.9;;;;;;;12.68;88.63;;;;;
2023/09/29 22:29:31;;;;;;;14.2;7.9;;;;;;;12.55;88.94;;;;;
2023/09/29 22:39:30;;;;;;;18;10.1;;;;;;;12.49;89.34;;;;;
2023/09/29 22:50:32;;;;;;;18;10.1;;;;;;;12.39;89.44;;;;;
2023/09/29 23:01:30;;;;;;;18;10.1;;;;;;;12.36;89.98;;;;;
2023/09/29 23:12:30;;;;;;;19.5;11.1;;;;;;;12.32;90.03;;;;;
2023/09/29 23:22:31;;;;;;;19.5;11.1;;;;;;;12.27;90.3;;;;;
2023/09/29 23:33:31;;;;;;;19.5;11.1;;;;;;;12.3;90.8;;;;;
2023/09/29 23:43:31;;;;;;;19.1;10.3;;;;;;;12.31;90.69;;;;;
2023/09/29 23:54:30;;;;;;;19.1;10.3;;;;;;;12.21;90.62;;;;;
